sensor_id;sensor_type;location;lat;lon;timestamp;temperature;humidity
10431;DHT22;5262;59.958;17.726;2023-04-10T00:01:00;-2.80;99.90
10431;DHT22;5262;59.958;17.726;2023-04-10T00:03:26;-2.70;99.90
10431;DHT22;5262;59.958;17.726;2023-04-10T00:05:52;-2.80;99.90
10431;DHT22;5262;59.958;17.726;2023-04-10T00:08:27;-2.80;99.90
10431;DHT22;5262;59.958;17.726;2023-04-10T00:10:53;-2.80;99.90
10431;DHT22;5262;59.958;17.726;2023-04-10T00:13:19;-2.80;99.90
10431;DHT22;5262;59.958;17.726;2023-04-10T00:15:45;-2.90;99.90
10431;DHT22;5262;59.958;17.726;2023-04-10T00:18:11;-3.00;99.90
10431;DHT22;5262;59.958;17.726;2023-04-10T00:20:36;-2.90;99.90
10431;DHT22;5262;59.958;17.726;2023-04-10T00:23:02;-3.00;99.90
10431;DHT22;5262;59.958;17.726;2023-04-10T00:25:28;-3.00;99.90
10431;DHT22;5262;59.958;17.726;2023-04-10T00:27:53;-3.00;99.90
10431;DHT22;5262;59.958;17.726;2023-04-10T00:30:19;-3.00;99.90
10431;DHT22;5262;59.958;17.726;2023-04-10T00:32:45;-3.00;99.90
10431;DHT22;5262;59.958;17.726;2023-04-10T00:35:11;-3.00;99.90
10431;DHT22;5262;59.958;17.726;2023-04-10T00:37:37;-3.00;99.90
10431;DHT22;5262;59.958;17.726;2023-04-10T00:40:04;-3.00;99.90
10431;DHT22;5262;59.958;17.726;2023-04-10T00:42:31;-3.00;99.90
10431;DHT22;5262;59.958;17.726;2023-04-10T00:44:57;-3.00;99.90
10431;DHT22;5262;59.958;17.726;2023-04-10T00:47:22;-3.10;99.90
10431;DHT22;5262;59.958;17.726;2023-04-10T00:49:48;-3.10;99.90
10431;DHT22;5262;59.958;17.726;2023-04-10T00:52:14;-3.20;99.90
10431;DHT22;5262;59.958;17.726;2023-04-10T00:54:40;-3.20;99.90
10431;DHT22;5262;59.958;17.726;2023-04-10T00:57:06;-3.20;99.90
10431;DHT22;5262;59.958;17.726;2023-04-10T00:59:32;-3.30;99.90
10431;DHT22;5262;59.958;17.726;2023-04-10T01:01:58;-3.30;99.90
10431;DHT22;5262;59.958;17.726;2023-04-10T01:04:24;-3.30;99.90
10431;DHT22;5262;59.958;17.726;2023-04-10T01:07:15;-3.30;99.90
10431;DHT22;5262;59.958;17.726;2023-04-10T01:10:09;-3.30;99.90
10431;DHT22;5262;59.958;17.726;2023-04-10T01:15:24;-3.30;99.90
10431;DHT22;5262;59.958;17.726;2023-04-10T01:17:56;-3.40;99.90
10431;DHT22;5262;59.958;17.726;2023-04-10T01:20:26;-3.40;99.90
10431;DHT22;5262;59.958;17.726;2023-04-10T01:30:52;-3.50;99.90
10431;DHT22;5262;59.958;17.726;2023-04-10T01:33:27;-3.50;99.90
10431;DHT22;5262;59.958;17.726;2023-04-10T01:35:55;-3.50;99.90
10431;DHT22;5262;59.958;17.726;2023-04-10T01:38:23;-3.50;99.90
10431;DHT22;5262;59.958;17.726;2023-04-10T01:40:52;-3.60;99.90
10431;DHT22;5262;59.958;17.726;2023-04-10T01:43:20;-3.60;99.90
10431;DHT22;5262;59.958;17.726;2023-04-10T01:45:48;-3.60;99.90
10431;DHT22;5262;59.958;17.726;2023-04-10T01:48:15;-3.60;99.90
10431;DHT22;5262;59.958;17.726;2023-04-10T01:50:45;-3.60;99.90
10431;DHT22;5262;59.958;17.726;2023-04-10T01:53:11;-3.60;99.90
10431;DHT22;5262;59.958;17.726;2023-04-10T01:55:38;-3.60;99.90
10431;DHT22;5262;59.958;17.726;2023-04-10T01:58:04;-3.60;99.90
10431;DHT22;5262;59.958;17.726;2023-04-10T02:00:37;-3.70;99.90
10431;DHT22;5262;59.958;17.726;2023-04-10T02:03:03;-3.60;99.90
10431;DHT22;5262;59.958;17.726;2023-04-10T02:05:41;-3.70;99.90
10431;DHT22;5262;59.958;17.726;2023-04-10T02:08:13;-3.70;99.90
10431;DHT22;5262;59.958;17.726;2023-04-10T02:11:03;-3.70;99.90
10431;DHT22;5262;59.958;17.726;2023-04-10T02:13:33;-3.70;99.90
10431;DHT22;5262;59.958;17.726;2023-04-10T02:16:02;-3.70;99.90
10431;DHT22;5262;59.958;17.726;2023-04-10T02:18:30;-3.80;99.90
10431;DHT22;5262;59.958;17.726;2023-04-10T02:20:57;-3.80;99.90
10431;DHT22;5262;59.958;17.726;2023-04-10T02:23:22;-3.80;99.90
10431;DHT22;5262;59.958;17.726;2023-04-10T02:25:48;-3.80;99.90
10431;DHT22;5262;59.958;17.726;2023-04-10T02:28:14;-3.80;99.90
10431;DHT22;5262;59.958;17.726;2023-04-10T02:30:39;-3.80;99.90
10431;DHT22;5262;59.958;17.726;2023-04-10T02:33:05;-3.80;99.90
10431;DHT22;5262;59.958;17.726;2023-04-10T02:35:32;-3.80;99.90
10431;DHT22;5262;59.958;17.726;2023-04-10T02:37:58;-3.80;99.90
10431;DHT22;5262;59.958;17.726;2023-04-10T02:40:24;-3.80;99.90
10431;DHT22;5262;59.958;17.726;2023-04-10T02:42:49;-3.90;99.90
10431;DHT22;5262;59.958;17.726;2023-04-10T02:45:15;-3.90;99.90
10431;DHT22;5262;59.958;17.726;2023-04-10T02:47:41;-3.90;99.90
10431;DHT22;5262;59.958;17.726;2023-04-10T02:50:07;-3.90;99.90
10431;DHT22;5262;59.958;17.726;2023-04-10T02:52:32;-3.90;99.90
10431;DHT22;5262;59.958;17.726;2023-04-10T02:54:58;-3.90;99.90
10431;DHT22;5262;59.958;17.726;2023-04-10T02:57:24;-3.90;99.90
10431;DHT22;5262;59.958;17.726;2023-04-10T02:59:50;-3.90;99.90
10431;DHT22;5262;59.958;17.726;2023-04-10T03:02:16;-3.90;99.90
10431;DHT22;5262;59.958;17.726;2023-04-10T03:04:42;-3.90;99.90
10431;DHT22;5262;59.958;17.726;2023-04-10T03:07:08;-4.00;99.90
10431;DHT22;5262;59.958;17.726;2023-04-10T03:09:33;-4.00;99.90
10431;DHT22;5262;59.958;17.726;2023-04-10T03:11:59;-4.00;99.90
10431;DHT22;5262;59.958;17.726;2023-04-10T03:14:26;-4.00;99.90
10431;DHT22;5262;59.958;17.726;2023-04-10T03:16:52;-4.00;99.90
10431;DHT22;5262;59.958;17.726;2023-04-10T03:19:17;-4.00;99.90
10431;DHT22;5262;59.958;17.726;2023-04-10T03:21:44;-4.00;99.90
10431;DHT22;5262;59.958;17.726;2023-04-10T03:24:10;-4.00;99.90
10431;DHT22;5262;59.958;17.726;2023-04-10T03:26:35;-4.00;99.90
10431;DHT22;5262;59.958;17.726;2023-04-10T03:29:01;-4.00;99.90
10431;DHT22;5262;59.958;17.726;2023-04-10T03:31:27;-4.10;99.90
10431;DHT22;5262;59.958;17.726;2023-04-10T03:33:53;-4.10;99.90
10431;DHT22;5262;59.958;17.726;2023-04-10T03:36:18;-4.10;99.90
10431;DHT22;5262;59.958;17.726;2023-04-10T03:38:44;-4.10;99.90
10431;DHT22;5262;59.958;17.726;2023-04-10T03:41:10;-4.10;99.90
10431;DHT22;5262;59.958;17.726;2023-04-10T03:43:35;-4.20;99.90
10431;DHT22;5262;59.958;17.726;2023-04-10T03:46:01;-4.20;99.90
10431;DHT22;5262;59.958;17.726;2023-04-10T03:48:26;-4.20;99.90
10431;DHT22;5262;59.958;17.726;2023-04-10T03:50:54;-4.20;99.90
10431;DHT22;5262;59.958;17.726;2023-04-10T03:53:20;-4.20;99.90
10431;DHT22;5262;59.958;17.726;2023-04-10T03:55:46;-4.20;99.90
10431;DHT22;5262;59.958;17.726;2023-04-10T03:58:12;-4.20;99.90
10431;DHT22;5262;59.958;17.726;2023-04-10T04:00:37;-4.20;99.90
10431;DHT22;5262;59.958;17.726;2023-04-10T04:03:04;-4.20;99.90
10431;DHT22;5262;59.958;17.726;2023-04-10T04:05:30;-4.20;99.90
10431;DHT22;5262;59.958;17.726;2023-04-10T04:07:56;-4.20;99.90
10431;DHT22;5262;59.958;17.726;2023-04-10T04:10:22;-4.10;99.90
10431;DHT22;5262;59.958;17.726;2023-04-10T04:12:48;-4.20;99.90
10431;DHT22;5262;59.958;17.726;2023-04-10T04:15:14;-4.20;99.90
10431;DHT22;5262;59.958;17.726;2023-04-10T04:17:40;-4.20;99.90
10431;DHT22;5262;59.958;17.726;2023-04-10T04:20:06;-4.10;99.90
10431;DHT22;5262;59.958;17.726;2023-04-10T04:22:32;-4.10;99.90
10431;DHT22;5262;59.958;17.726;2023-04-10T04:24:58;-4.10;99.90
10431;DHT22;5262;59.958;17.726;2023-04-10T04:27:24;-4.10;99.90
10431;DHT22;5262;59.958;17.726;2023-04-10T04:29:49;-4.10;99.90
10431;DHT22;5262;59.958;17.726;2023-04-10T04:32:15;-4.00;99.90
10431;DHT22;5262;59.958;17.726;2023-04-10T04:34:41;-3.90;99.90
10431;DHT22;5262;59.958;17.726;2023-04-10T04:37:06;-3.90;99.90
10431;DHT22;5262;59.958;17.726;2023-04-10T04:39:32;-3.90;99.90
10431;DHT22;5262;59.958;17.726;2023-04-10T04:41:58;-3.80;99.90
10431;DHT22;5262;59.958;17.726;2023-04-10T04:44:23;-3.70;99.90
10431;DHT22;5262;59.958;17.726;2023-04-10T04:46:49;-3.70;99.90
10431;DHT22;5262;59.958;17.726;2023-04-10T04:49:14;-3.70;99.90
10431;DHT22;5262;59.958;17.726;2023-04-10T04:51:40;-3.70;99.90
10431;DHT22;5262;59.958;17.726;2023-04-10T04:54:06;-3.60;99.90
10431;DHT22;5262;59.958;17.726;2023-04-10T04:56:31;-3.50;99.90
10431;DHT22;5262;59.958;17.726;2023-04-10T04:58:57;-3.50;99.90
10431;DHT22;5262;59.958;17.726;2023-04-10T05:01:23;-3.40;99.90
10431;DHT22;5262;59.958;17.726;2023-04-10T05:03:49;-3.30;99.90
10431;DHT22;5262;59.958;17.726;2023-04-10T05:06:14;-3.20;99.90
10431;DHT22;5262;59.958;17.726;2023-04-10T05:08:42;-3.10;99.90
10431;DHT22;5262;59.958;17.726;2023-04-10T05:11:07;-2.90;99.90
10431;DHT22;5262;59.958;17.726;2023-04-10T05:13:33;-2.80;99.90
10431;DHT22;5262;59.958;17.726;2023-04-10T05:15:59;-2.70;99.90
10431;DHT22;5262;59.958;17.726;2023-04-10T05:18:24;-2.50;99.90
10431;DHT22;5262;59.958;17.726;2023-04-10T05:20:50;-2.50;99.90
10431;DHT22;5262;59.958;17.726;2023-04-10T05:23:16;-2.30;99.90
10431;DHT22;5262;59.958;17.726;2023-04-10T05:25:41;-2.20;99.90
10431;DHT22;5262;59.958;17.726;2023-04-10T05:28:07;-2.00;99.90
10431;DHT22;5262;59.958;17.726;2023-04-10T05:30:33;-1.90;99.90
10431;DHT22;5262;59.958;17.726;2023-04-10T05:32:58;-1.80;99.90
10431;DHT22;5262;59.958;17.726;2023-04-10T05:35:24;-1.70;99.90
10431;DHT22;5262;59.958;17.726;2023-04-10T05:37:50;-1.50;99.90
10431;DHT22;5262;59.958;17.726;2023-04-10T05:40:15;-1.40;99.90
10431;DHT22;5262;59.958;17.726;2023-04-10T05:42:41;-1.30;99.90
10431;DHT22;5262;59.958;17.726;2023-04-10T05:45:07;-1.20;99.90
10431;DHT22;5262;59.958;17.726;2023-04-10T05:47:33;-1.20;99.90
10431;DHT22;5262;59.958;17.726;2023-04-10T05:49:58;-1.00;99.90
10431;DHT22;5262;59.958;17.726;2023-04-10T05:52:24;-1.00;99.90
10431;DHT22;5262;59.958;17.726;2023-04-10T05:54:49;-0.80;99.90
10431;DHT22;5262;59.958;17.726;2023-04-10T05:57:16;-0.30;99.90
10431;DHT22;5262;59.958;17.726;2023-04-10T05:59:42;0.00;99.90
10431;DHT22;5262;59.958;17.726;2023-04-10T06:02:07;0.10;99.90
10431;DHT22;5262;59.958;17.726;2023-04-10T06:04:33;0.30;99.90
10431;DHT22;5262;59.958;17.726;2023-04-10T06:06:59;0.30;99.90
10431;DHT22;5262;59.958;17.726;2023-04-10T06:09:25;0.50;99.90
10431;DHT22;5262;59.958;17.726;2023-04-10T06:11:51;0.80;99.90
10431;DHT22;5262;59.958;17.726;2023-04-10T06:14:18;1.00;99.90
10431;DHT22;5262;59.958;17.726;2023-04-10T06:16:44;1.00;99.90
10431;DHT22;5262;59.958;17.726;2023-04-10T06:19:10;1.20;99.90
10431;DHT22;5262;59.958;17.726;2023-04-10T06:21:36;1.60;99.90
10431;DHT22;5262;59.958;17.726;2023-04-10T06:24:01;1.80;99.90
10431;DHT22;5262;59.958;17.726;2023-04-10T06:26:27;2.10;99.90
10431;DHT22;5262;59.958;17.726;2023-04-10T06:28:53;2.40;99.90
10431;DHT22;5262;59.958;17.726;2023-04-10T06:31:19;2.80;99.90
10431;DHT22;5262;59.958;17.726;2023-04-10T06:33:47;3.00;99.90
10431;DHT22;5262;59.958;17.726;2023-04-10T06:36:13;3.50;99.90
10431;DHT22;5262;59.958;17.726;2023-04-10T06:38:38;3.90;99.90
10431;DHT22;5262;59.958;17.726;2023-04-10T06:41:05;4.20;99.90
10431;DHT22;5262;59.958;17.726;2023-04-10T06:43:33;4.50;99.90
10431;DHT22;5262;59.958;17.726;2023-04-10T06:45:59;5.20;99.90
10431;DHT22;5262;59.958;17.726;2023-04-10T06:48:25;5.60;99.90
10431;DHT22;5262;59.958;17.726;2023-04-10T06:50:51;6.00;99.90
10431;DHT22;5262;59.958;17.726;2023-04-10T06:53:16;6.50;99.90
10431;DHT22;5262;59.958;17.726;2023-04-10T06:55:42;6.70;99.90
10431;DHT22;5262;59.958;17.726;2023-04-10T06:58:07;7.50;99.90
10431;DHT22;5262;59.958;17.726;2023-04-10T07:00:33;8.00;99.90
10431;DHT22;5262;59.958;17.726;2023-04-10T07:02:58;8.40;99.90
10431;DHT22;5262;59.958;17.726;2023-04-10T07:05:24;9.40;99.90
10431;DHT22;5262;59.958;17.726;2023-04-10T07:07:50;10.40;99.10
10431;DHT22;5262;59.958;17.726;2023-04-10T07:10:16;11.00;97.40
10431;DHT22;5262;59.958;17.726;2023-04-10T07:12:42;11.80;95.00
10431;DHT22;5262;59.958;17.726;2023-04-10T07:15:08;12.00;94.50
10431;DHT22;5262;59.958;17.726;2023-04-10T07:17:34;12.40;93.00
10431;DHT22;5262;59.958;17.726;2023-04-10T07:19:59;12.40;91.00
10431;DHT22;5262;59.958;17.726;2023-04-10T07:22:25;13.20;90.30
10431;DHT22;5262;59.958;17.726;2023-04-10T07:24:52;13.60;88.70
10431;DHT22;5262;59.958;17.726;2023-04-10T07:27:17;14.50;84.50
10431;DHT22;5262;59.958;17.726;2023-04-10T07:29:45;15.50;80.60
10431;DHT22;5262;59.958;17.726;2023-04-10T07:32:11;15.40;77.50
10431;DHT22;5262;59.958;17.726;2023-04-10T07:34:36;15.70;74.90
10431;DHT22;5262;59.958;17.726;2023-04-10T07:37:02;14.60;71.30
10431;DHT22;5262;59.958;17.726;2023-04-10T07:39:28;15.90;70.00
10431;DHT22;5262;59.958;17.726;2023-04-10T07:41:53;15.10;68.40
10431;DHT22;5262;59.958;17.726;2023-04-10T07:44:19;15.70;67.30
10431;DHT22;5262;59.958;17.726;2023-04-10T07:46:45;16.00;64.00
10431;DHT22;5262;59.958;17.726;2023-04-10T07:49:11;17.00;64.10
10431;DHT22;5262;59.958;17.726;2023-04-10T07:51:37;15.30;63.10
10431;DHT22;5262;59.958;17.726;2023-04-10T07:54:03;16.70;62.40
10431;DHT22;5262;59.958;17.726;2023-04-10T07:56:29;16.80;63.20
10431;DHT22;5262;59.958;17.726;2023-04-10T07:58:58;16.00;58.10
10431;DHT22;5262;59.958;17.726;2023-04-10T08:01:24;17.30;59.80
10431;DHT22;5262;59.958;17.726;2023-04-10T08:03:50;18.40;56.90
10431;DHT22;5262;59.958;17.726;2023-04-10T08:06:16;18.00;56.90
10431;DHT22;5262;59.958;17.726;2023-04-10T08:08:41;17.60;57.30
10431;DHT22;5262;59.958;17.726;2023-04-10T08:11:29;18.10;55.60
10431;DHT22;5262;59.958;17.726;2023-04-10T08:13:56;18.80;53.70
10431;DHT22;5262;59.958;17.726;2023-04-10T08:16:27;17.10;54.10
10431;DHT22;5262;59.958;17.726;2023-04-10T08:18:53;18.10;57.60
10431;DHT22;5262;59.958;17.726;2023-04-10T08:21:21;18.60;57.40
10431;DHT22;5262;59.958;17.726;2023-04-10T08:23:48;18.10;56.60
10431;DHT22;5262;59.958;17.726;2023-04-10T08:26:14;18.50;54.90
10431;DHT22;5262;59.958;17.726;2023-04-10T08:28:40;18.80;54.40
10431;DHT22;5262;59.958;17.726;2023-04-10T08:31:06;17.90;53.70
10431;DHT22;5262;59.958;17.726;2023-04-10T08:33:32;18.50;52.60
10431;DHT22;5262;59.958;17.726;2023-04-10T08:35:57;18.50;51.50
10431;DHT22;5262;59.958;17.726;2023-04-10T08:38:23;19.50;52.60
10431;DHT22;5262;59.958;17.726;2023-04-10T08:40:52;17.60;50.20
10431;DHT22;5262;59.958;17.726;2023-04-10T08:43:17;18.80;53.10
10431;DHT22;5262;59.958;17.726;2023-04-10T08:45:43;19.50;50.40
10431;DHT22;5262;59.958;17.726;2023-04-10T08:48:09;19.30;51.70
10431;DHT22;5262;59.958;17.726;2023-04-10T08:50:42;19.00;51.60
10431;DHT22;5262;59.958;17.726;2023-04-10T08:53:14;18.30;47.80
10431;DHT22;5262;59.958;17.726;2023-04-10T08:55:40;18.30;49.10
10431;DHT22;5262;59.958;17.726;2023-04-10T08:58:07;18.80;48.90
10431;DHT22;5262;59.958;17.726;2023-04-10T09:00:33;19.00;49.50
10431;DHT22;5262;59.958;17.726;2023-04-10T09:03:00;20.20;47.00
10431;DHT22;5262;59.958;17.726;2023-04-10T09:05:29;20.60;46.90
10431;DHT22;5262;59.958;17.726;2023-04-10T09:07:55;19.80;45.00
10431;DHT22;5262;59.958;17.726;2023-04-10T09:10:21;17.80;43.20
10431;DHT22;5262;59.958;17.726;2023-04-10T09:12:47;18.40;45.40
10431;DHT22;5262;59.958;17.726;2023-04-10T09:15:14;19.50;45.20
10431;DHT22;5262;59.958;17.726;2023-04-10T09:17:57;19.50;48.70
10431;DHT22;5262;59.958;17.726;2023-04-10T09:20:25;19.80;47.60
10431;DHT22;5262;59.958;17.726;2023-04-10T09:22:52;17.40;46.50
10431;DHT22;5262;59.958;17.726;2023-04-10T09:25:29;17.10;47.60
10431;DHT22;5262;59.958;17.726;2023-04-10T09:28:06;19.10;48.70
10431;DHT22;5262;59.958;17.726;2023-04-10T09:30:40;20.10;47.30
10431;DHT22;5262;59.958;17.726;2023-04-10T09:33:23;20.50;44.60
10431;DHT22;5262;59.958;17.726;2023-04-10T09:35:49;20.60;46.70
10431;DHT22;5262;59.958;17.726;2023-04-10T09:38:17;20.20;44.50
10431;DHT22;5262;59.958;17.726;2023-04-10T09:40:44;19.20;43.00
10431;DHT22;5262;59.958;17.726;2023-04-10T09:43:36;18.70;43.80
10431;DHT22;5262;59.958;17.726;2023-04-10T09:46:03;19.20;45.60
10431;DHT22;5262;59.958;17.726;2023-04-10T09:48:29;19.90;45.00
10431;DHT22;5262;59.958;17.726;2023-04-10T09:50:54;19.70;44.50
10431;DHT22;5262;59.958;17.726;2023-04-10T09:53:21;19.60;43.80
10431;DHT22;5262;59.958;17.726;2023-04-10T09:55:48;19.60;44.70
10431;DHT22;5262;59.958;17.726;2023-04-10T09:58:15;19.10;42.30
10431;DHT22;5262;59.958;17.726;2023-04-10T10:00:43;20.20;42.20
10431;DHT22;5262;59.958;17.726;2023-04-10T10:03:11;19.40;39.60
10431;DHT22;5262;59.958;17.726;2023-04-10T10:05:57;19.40;41.40
10431;DHT22;5262;59.958;17.726;2023-04-10T10:08:23;19.80;39.80
10431;DHT22;5262;59.958;17.726;2023-04-10T10:10:54;18.90;42.20
10431;DHT22;5262;59.958;17.726;2023-04-10T10:13:34;17.50;42.50
10431;DHT22;5262;59.958;17.726;2023-04-10T10:16:14;19.10;42.70
10431;DHT22;5262;59.958;17.726;2023-04-10T10:21:33;18.80;43.60
10431;DHT22;5262;59.958;17.726;2023-04-10T10:24:00;18.30;43.20
10431;DHT22;5262;59.958;17.726;2023-04-10T10:26:29;18.20;43.20
10431;DHT22;5262;59.958;17.726;2023-04-10T10:28:56;18.70;42.70
10431;DHT22;5262;59.958;17.726;2023-04-10T10:31:24;18.30;44.40
10431;DHT22;5262;59.958;17.726;2023-04-10T10:33:53;18.70;42.60
10431;DHT22;5262;59.958;17.726;2023-04-10T10:36:19;18.50;43.00
10431;DHT22;5262;59.958;17.726;2023-04-10T10:41:37;18.60;41.90
10431;DHT22;5262;59.958;17.726;2023-04-10T10:44:15;19.00;41.40
10431;DHT22;5262;59.958;17.726;2023-04-10T10:46:55;19.60;43.10
10431;DHT22;5262;59.958;17.726;2023-04-10T10:52:38;19.90;40.10
10431;DHT22;5262;59.958;17.726;2023-04-10T11:00:18;18.80;39.50
10431;DHT22;5262;59.958;17.726;2023-04-10T11:02:44;18.40;40.70
10431;DHT22;5262;59.958;17.726;2023-04-10T11:05:22;20.10;40.50
10431;DHT22;5262;59.958;17.726;2023-04-10T11:08:06;20.50;37.90
10431;DHT22;5262;59.958;17.726;2023-04-10T11:10:57;21.10;37.20
10431;DHT22;5262;59.958;17.726;2023-04-10T11:13:23;19.90;38.70
10431;DHT22;5262;59.958;17.726;2023-04-10T11:15:50;19.20;39.10
10431;DHT22;5262;59.958;17.726;2023-04-10T11:18:16;19.80;41.00
10431;DHT22;5262;59.958;17.726;2023-04-10T11:21:14;20.60;39.70
10431;DHT22;5262;59.958;17.726;2023-04-10T11:31:58;20.70;39.10
10431;DHT22;5262;59.958;17.726;2023-04-10T11:34:24;20.90;39.50
10431;DHT22;5262;59.958;17.726;2023-04-10T11:36:52;19.90;39.60
10431;DHT22;5262;59.958;17.726;2023-04-10T11:39:18;20.90;38.30
10431;DHT22;5262;59.958;17.726;2023-04-10T11:41:49;19.20;35.90
10431;DHT22;5262;59.958;17.726;2023-04-10T11:44:26;18.90;40.20
10431;DHT22;5262;59.958;17.726;2023-04-10T11:46:52;19.60;40.30
10431;DHT22;5262;59.958;17.726;2023-04-10T11:49:20;20.30;38.90
10431;DHT22;5262;59.958;17.726;2023-04-10T11:51:48;21.00;37.40
10431;DHT22;5262;59.958;17.726;2023-04-10T11:54:15;18.70;38.00
10431;DHT22;5262;59.958;17.726;2023-04-10T11:56:48;18.50;40.00
10431;DHT22;5262;59.958;17.726;2023-04-10T11:59:21;18.40;38.70
10431;DHT22;5262;59.958;17.726;2023-04-10T12:01:47;19.00;40.00
10431;DHT22;5262;59.958;17.726;2023-04-10T12:04:17;17.80;40.50
10431;DHT22;5262;59.958;17.726;2023-04-10T12:06:44;18.30;39.20
10431;DHT22;5262;59.958;17.726;2023-04-10T12:09:15;18.30;39.90
10431;DHT22;5262;59.958;17.726;2023-04-10T12:12:07;18.40;40.50
10431;DHT22;5262;59.958;17.726;2023-04-10T12:14:40;17.30;39.40
10431;DHT22;5262;59.958;17.726;2023-04-10T12:17:07;17.60;40.50
10431;DHT22;5262;59.958;17.726;2023-04-10T12:19:34;16.50;40.40
10431;DHT22;5262;59.958;17.726;2023-04-10T12:22:00;16.60;40.40
10431;DHT22;5262;59.958;17.726;2023-04-10T12:24:43;14.70;40.50
10431;DHT22;5262;59.958;17.726;2023-04-10T12:27:15;15.40;44.70
10431;DHT22;5262;59.958;17.726;2023-04-10T12:29:42;15.60;43.20
10431;DHT22;5262;59.958;17.726;2023-04-10T12:32:08;15.60;42.60
10431;DHT22;5262;59.958;17.726;2023-04-10T12:34:35;15.10;42.60
10431;DHT22;5262;59.958;17.726;2023-04-10T12:37:01;14.30;42.70
10431;DHT22;5262;59.958;17.726;2023-04-10T12:39:28;15.30;44.80
10431;DHT22;5262;59.958;17.726;2023-04-10T12:42:10;16.30;42.70
10431;DHT22;5262;59.958;17.726;2023-04-10T12:44:55;16.10;42.20
10431;DHT22;5262;59.958;17.726;2023-04-10T12:47:22;15.90;39.60
10431;DHT22;5262;59.958;17.726;2023-04-10T12:50:10;16.10;40.10
10431;DHT22;5262;59.958;17.726;2023-04-10T12:52:38;15.40;39.60
10431;DHT22;5262;59.958;17.726;2023-04-10T12:55:18;14.90;40.30
10431;DHT22;5262;59.958;17.726;2023-04-10T12:57:45;15.20;41.60
10431;DHT22;5262;59.958;17.726;2023-04-10T13:00:18;15.10;41.50
10431;DHT22;5262;59.958;17.726;2023-04-10T13:02:44;15.10;41.80
10431;DHT22;5262;59.958;17.726;2023-04-10T13:05:10;14.30;41.50
10431;DHT22;5262;59.958;17.726;2023-04-10T13:07:37;14.10;42.60
10431;DHT22;5262;59.958;17.726;2023-04-10T13:10:04;13.70;42.00
10431;DHT22;5262;59.958;17.726;2023-04-10T13:12:33;13.90;42.10
10431;DHT22;5262;59.958;17.726;2023-04-10T13:15:00;14.00;42.00
10431;DHT22;5262;59.958;17.726;2023-04-10T13:17:26;14.00;41.30
10431;DHT22;5262;59.958;17.726;2023-04-10T13:19:52;13.90;41.70
10431;DHT22;5262;59.958;17.726;2023-04-10T13:22:19;13.70;42.80
10431;DHT22;5262;59.958;17.726;2023-04-10T13:24:44;14.00;43.70
10431;DHT22;5262;59.958;17.726;2023-04-10T13:27:10;14.20;41.70
10431;DHT22;5262;59.958;17.726;2023-04-10T13:29:39;14.40;42.10
10431;DHT22;5262;59.958;17.726;2023-04-10T13:32:05;14.10;42.10
10431;DHT22;5262;59.958;17.726;2023-04-10T13:34:31;14.40;42.10
10431;DHT22;5262;59.958;17.726;2023-04-10T13:36:57;14.60;40.60
10431;DHT22;5262;59.958;17.726;2023-04-10T13:39:23;13.70;39.10
10431;DHT22;5262;59.958;17.726;2023-04-10T13:41:49;13.90;40.00
10431;DHT22;5262;59.958;17.726;2023-04-10T13:44:14;13.80;40.80
10431;DHT22;5262;59.958;17.726;2023-04-10T13:46:40;14.30;40.30
10431;DHT22;5262;59.958;17.726;2023-04-10T13:49:06;14.50;41.50
10431;DHT22;5262;59.958;17.726;2023-04-10T13:51:31;14.30;42.40
10431;DHT22;5262;59.958;17.726;2023-04-10T13:53:57;13.90;41.20
10431;DHT22;5262;59.958;17.726;2023-04-10T13:56:23;14.40;41.90
10431;DHT22;5262;59.958;17.726;2023-04-10T13:58:48;14.00;41.00
10431;DHT22;5262;59.958;17.726;2023-04-10T14:01:14;13.80;42.50
10431;DHT22;5262;59.958;17.726;2023-04-10T14:03:40;14.10;42.20
10431;DHT22;5262;59.958;17.726;2023-04-10T14:06:06;14.10;42.60
10431;DHT22;5262;59.958;17.726;2023-04-10T14:08:32;14.10;41.50
10431;DHT22;5262;59.958;17.726;2023-04-10T14:10:57;13.70;42.00
10431;DHT22;5262;59.958;17.726;2023-04-10T14:13:23;13.80;43.10
10431;DHT22;5262;59.958;17.726;2023-04-10T14:15:51;13.70;42.00
10431;DHT22;5262;59.958;17.726;2023-04-10T14:18:18;13.50;41.30
10431;DHT22;5262;59.958;17.726;2023-04-10T14:20:44;13.70;43.40
10431;DHT22;5262;59.958;17.726;2023-04-10T14:23:09;13.80;44.00
10431;DHT22;5262;59.958;17.726;2023-04-10T14:25:41;13.50;43.20
10431;DHT22;5262;59.958;17.726;2023-04-10T14:28:07;13.00;43.20
10431;DHT22;5262;59.958;17.726;2023-04-10T14:30:33;12.90;44.40
10431;DHT22;5262;59.958;17.726;2023-04-10T14:32:58;12.70;44.10
10431;DHT22;5262;59.958;17.726;2023-04-10T14:35:24;13.00;44.60
10431;DHT22;5262;59.958;17.726;2023-04-10T14:37:50;13.00;45.60
10431;DHT22;5262;59.958;17.726;2023-04-10T14:40:15;12.80;45.10
10431;DHT22;5262;59.958;17.726;2023-04-10T14:42:41;13.00;45.10
10431;DHT22;5262;59.958;17.726;2023-04-10T14:45:07;12.60;46.50
10431;DHT22;5262;59.958;17.726;2023-04-10T14:47:33;12.40;46.20
10431;DHT22;5262;59.958;17.726;2023-04-10T14:50:00;12.40;46.50
10431;DHT22;5262;59.958;17.726;2023-04-10T14:52:26;12.80;47.10
10431;DHT22;5262;59.958;17.726;2023-04-10T14:54:51;12.70;46.50
10431;DHT22;5262;59.958;17.726;2023-04-10T14:57:17;12.70;47.20
10431;DHT22;5262;59.958;17.726;2023-04-10T14:59:43;12.90;47.50
10431;DHT22;5262;59.958;17.726;2023-04-10T15:02:08;12.70;47.10
10431;DHT22;5262;59.958;17.726;2023-04-10T15:04:34;12.60;47.80
10431;DHT22;5262;59.958;17.726;2023-04-10T15:07:00;12.10;46.30
10431;DHT22;5262;59.958;17.726;2023-04-10T15:09:26;12.20;46.40
10431;DHT22;5262;59.958;17.726;2023-04-10T15:11:51;12.00;46.90
10431;DHT22;5262;59.958;17.726;2023-04-10T15:14:19;11.90;47.50
10431;DHT22;5262;59.958;17.726;2023-04-10T15:16:44;11.90;47.40
10431;DHT22;5262;59.958;17.726;2023-04-10T15:19:11;11.80;47.40
10431;DHT22;5262;59.958;17.726;2023-04-10T15:21:37;11.80;48.20
10431;DHT22;5262;59.958;17.726;2023-04-10T15:24:03;11.60;46.80
10431;DHT22;5262;59.958;17.726;2023-04-10T15:26:28;11.50;46.80
10431;DHT22;5262;59.958;17.726;2023-04-10T15:28:54;11.20;46.90
10431;DHT22;5262;59.958;17.726;2023-04-10T15:31:22;11.00;47.80
10431;DHT22;5262;59.958;17.726;2023-04-10T15:33:50;11.00;48.00
10431;DHT22;5262;59.958;17.726;2023-04-10T15:36:16;10.80;48.80
10431;DHT22;5262;59.958;17.726;2023-04-10T15:38:41;10.80;48.10
10431;DHT22;5262;59.958;17.726;2023-04-10T15:41:11;10.60;48.50
10431;DHT22;5262;59.958;17.726;2023-04-10T15:43:37;10.60;48.10
10431;DHT22;5262;59.958;17.726;2023-04-10T15:46:03;10.60;49.60
10431;DHT22;5262;59.958;17.726;2023-04-10T15:48:29;10.50;48.70
10431;DHT22;5262;59.958;17.726;2023-04-10T15:50:55;10.40;49.50
10431;DHT22;5262;59.958;17.726;2023-04-10T15:53:20;10.40;49.70
10431;DHT22;5262;59.958;17.726;2023-04-10T15:55:46;10.30;49.20
10431;DHT22;5262;59.958;17.726;2023-04-10T15:58:12;10.30;49.50
10431;DHT22;5262;59.958;17.726;2023-04-10T16:00:37;10.30;49.70
10431;DHT22;5262;59.958;17.726;2023-04-10T16:03:03;10.50;49.80
10431;DHT22;5262;59.958;17.726;2023-04-10T16:05:28;10.50;49.90
10431;DHT22;5262;59.958;17.726;2023-04-10T16:07:54;10.40;49.80